West Corners, New York
Current Conditions -  °F | °C
As of 10:53 AM on Thursday 30 Oct 2014 (Local Time) from KBGM Reporting Station
Overcast Overcast  
Wind Chill: 38°   Ceiling: 2300
Heat Index: 43°   Visibility: 10mi
Dew Point: 35°   Wind: 8mph
Humidity: 74%   Direction: 300°WNW
Pressure: 30.01"   Gusts: NA
Location:  42.1332°N, 76.0798°W
Report Text: KBGM 301453Z 30007KT 10SM OVC023 06/02 A3001 RMK AO2 SLP171 T00610017 53003
Loading
Personal Weather Stations






























Interactive Weather Map New forecast layout! Learn more

10-Day Weather Forecast

Advertisements
Track Severe Weather on mobile